Bangkok Bridge — 3FTZ8 — position and weather

sailwx.info

Track history (hours):
 
Tides and Currents Weather Stations Pressure Air Temp Water Temp Dewpoint Dewpoint Depression Visibility Wind Speed Wind Dir Waves Ship Positions

Bangkok Bridge

Last reported at 2018-Feb-15 06:46 UTC. Time now 2018-Feb-18 21:37 UTC.
Position N 38°10' W 124°08'.

Length 267 m; draft 11.7 m.

Type: Ship (hazmat cat A). MMSI: 353368000.

Date/timePositionNaut miles runAvg speedWind from/ knotsBaromVisibWave heightAir tempDewpointWater temp
2018-Feb-15 06:46N 38°10' W 124°08'716.7
2018-Feb-15 06:23N 38°10' W 123°59'616.7
2018-Feb-15 06:00N 38°10' W 123°51'816.8
2018-Feb-15 05:30N 38°10' W 123°41'816.8
2018-Feb-15 05:00N 38°10' W 123°30'714.7
2018-Feb-15 04:30N 38°09' W 123°20'5 9.5
2018-Feb-15 04:00N 38°06' W 123°17'5 9.3
2018-Feb-15 03:31N 38°02' W 123°13'5 9.3
2018-Feb-15 03:00N 37°59' W 123°09'5 9.1
2018-Feb-15 02:30N 37°57' W 123°04'4 9.1
2018-Feb-15 02:00N 37°54' W 122°59'5 9.2
2018-Feb-15 01:31N 37°52' W 122°54'5 9.1
2018-Feb-15 01:00N 37°50' W 122°49'5 9.2
2018-Feb-15 00:30N 37°47' W 122°44'510.8
2018-Feb-15 00:00N 37°46' W 122°37'816.9
2018-Feb-14 23:30N 37°50' W 122°28'611.9
2018-Feb-14 23:01N 37°48' W 122°21'1 1.6
2018-Feb-14 22:30N 37°49' W 122°20'0 0.0
2018-Feb-14 21:58N 37°49' W 122°20'0 0.0
2018-Feb-14 21:26N 37°49' W 122°20'0 0.0
2018-Feb-14 20:58N 37°49' W 122°20'0 0.0
2018-Feb-14 20:28N 37°49' W 122°20'0 0.0
2018-Feb-14 19:58N 37°49' W 122°20'0 0.0
2018-Feb-14 19:28N 37°49' W 122°20'0 0.0
2018-Feb-14 18:58N 37°49' W 122°20'0 0.0
2018-Feb-14 18:28N 37°49' W 122°20'0 0.0
2018-Feb-14 17:58N 37°49' W 122°20'0 0.0
2018-Feb-14 17:28N 37°49' W 122°20'0 0.0
2018-Feb-14 16:58N 37°49' W 122°20'0 0.0
2018-Feb-14 16:28N 37°49' W 122°20'0 0.0
2018-Feb-14 15:58N 37°49' W 122°20'0 0.0
2018-Feb-14 15:25N 37°49' W 122°20'0 0.0
2018-Feb-14 14:58N 37°49' W 122°20'0 0.0
2018-Feb-14 14:28N 37°49' W 122°20'0 0.0
2018-Feb-14 13:59N 37°49' W 122°20'0 0.0
2018-Feb-14 13:28N 37°49' W 122°20'0 0.0
2018-Feb-14 12:59N 37°49' W 122°20'0 0.0
2018-Feb-14 12:28N 37°49' W 122°20'0 0.0
2018-Feb-14 11:58N 37°49' W 122°20'0 0.0
2018-Feb-14 11:28N 37°49' W 122°20'0 0.0
2018-Feb-14 10:58N 37°49' W 122°20'0 0.0
2018-Feb-14 10:28N 37°49' W 122°20'0 0.0
2018-Feb-14 09:58N 37°49' W 122°20'0 0.0
2018-Feb-14 09:28N 37°49' W 122°20'0 0.0
2018-Feb-14 08:58N 37°49' W 122°20'0 0.0
2018-Feb-14 08:28N 37°49' W 122°20'0 0.0
2018-Feb-14 07:58N 37°49' W 122°20'0 0.0
2018-Feb-14 07:28N 37°49' W 122°20'0 0.0
2018-Feb-14 06:58N 37°49' W 122°20'0 0.0
2018-Feb-14 06:28N 37°49' W 122°20'0 0.0
2018-Feb-14 05:58N 37°49' W 122°20'0 0.0
2018-Feb-14 05:25N 37°49' W 122°20'0 0.0
2018-Feb-14 04:58N 37°49' W 122°20'0 0.0
2018-Feb-14 04:28N 37°49' W 122°20'0 0.0
2018-Feb-14 03:58N 37°49' W 122°20'0 0.0
2018-Feb-14 03:28N 37°49' W 122°20'0 0.0
2018-Feb-14 02:58N 37°49' W 122°20'0 0.0
2018-Feb-14 02:28N 37°49' W 122°20'0 0.0
2018-Feb-14 01:58N 37°49' W 122°20'0 0.0
2018-Feb-14 01:28N 37°49' W 122°20'0 0.0
2018-Feb-14 01:00N 37°49' W 122°20'1 1.7
2018-Feb-14 00:31N 37°48' W 122°21'611.1
2018-Feb-14 00:01N 37°49' W 122°28'713.3
2018-Feb-13 23:30N 37°47' W 122°35'510.8
2018-Feb-13 23:00N 37°44' W 122°41'510.8
2018-Feb-13 22:30N 37°38' W 122°40'4 8.0
2018-Feb-13 22:00N 37°34' W 122°40'4 7.2
2018-Feb-13 21:30N 37°31' W 122°40'4 7.3
2018-Feb-13 21:00N 37°27' W 122°40'4 7.7
2018-Feb-13 20:30N 37°23' W 122°40'4 7.9
2018-Feb-13 20:00N 37°19' W 122°40'4 7.6
2018-Feb-13 19:30N 37°15' W 122°40'4 7.5
2018-Feb-13 19:00N 37°12' W 122°40'4 7.9
2018-Feb-13 18:30N 37°08' W 122°40'4 7.8
2018-Feb-13 18:00N 37°04' W 122°38'4 7.9
2018-Feb-13 17:28N 37°00' W 122°36'105 8.1
2018-Feb-13 04:35N 35°26' W 121°39'1 8.0
2018-Feb-13 04:30N 35°25' W 121°39'4 8.0
2018-Feb-13 04:00N 35°22' W 121°36'4 8.3
2018-Feb-13 03:30N 35°19' W 121°33'4 8.2
2018-Feb-13 03:00N 35°15' W 121°31'4 8.6
2018-Feb-13 02:30N 35°12' W 121°28'4 8.5
2018-Feb-13 02:00N 35°08' W 121°25'4 8.6
2018-Feb-13 01:30N 35°04' W 121°22'4 8.4
2018-Feb-13 01:00N 35°01' W 121°19'4 7.7
2018-Feb-13 00:30N 34°58' W 121°17'4 8.1
2018-Feb-13 00:00N 34°54' W 121°14'4 8.2
2018-Feb-12 23:30N 34°51' W 121°11'4 8.2
2018-Feb-12 23:00N 34°47' W 121°08'4 8.3
2018-Feb-12 22:30N 34°44' W 121°06'4 8.4
2018-Feb-12 22:00N 34°41' W 121°03'4 8.5
2018-Feb-12 21:30N 34°37' W 121°00'4 8.6
2018-Feb-12 21:00N 34°33' W 120°57'4 8.5
2018-Feb-12 20:30N 34°30' W 120°54'4 8.2
2018-Feb-12 20:00N 34°26' W 120°51'4 8.5
2018-Feb-12 19:30N 34°25' W 120°47'4 8.1
2018-Feb-12 18:59N 34°24' W 120°42'4 8.3
2018-Feb-12 18:29N 34°23' W 120°37'4 8.1
2018-Feb-12 18:00N 34°22' W 120°32'4 8.3
2018-Feb-12 17:30N 34°21' W 120°27'4 8.3
2018-Feb-12 16:59N 34°20' W 120°22'4 8.1
2018-Feb-12 16:30N 34°19' W 120°18'5 8.5
2018-Feb-12 15:58N 34°17' W 120°12'4 8.9
2018-Feb-12 15:30N 34°16' W 120°08'4 8.8
2018-Feb-12 15:00N 34°15' W 120°02'5 8.5
2018-Feb-12 14:27N 34°14' W 119°57'5 8.6
2018-Feb-12 13:53N 34°13' W 119°51'3 8.4
2018-Feb-12 13:28N 34°12' W 119°47'4 8.8
2018-Feb-12 13:00N 34°11' W 119°42'4 8.2
2018-Feb-12 12:28N 34°09' W 119°37'5 8.5
2018-Feb-12 11:56N 34°08' W 119°32'4 8.7
2018-Feb-12 11:29N 34°07' W 119°27'5 8.8
2018-Feb-12 10:58N 34°06' W 119°22'5 9.0
2018-Feb-12 10:26N 34°05' W 119°17'4 8.0
2018-Feb-12 09:57N 34°03' W 119°12'4 8.1
2018-Feb-12 09:30N 34°01' W 119°09'5 8.4
2018-Feb-12 08:57N 33°59' W 119°04'4 8.9
2018-Feb-12 08:29N 33°57' W 118°59'4 8.7
2018-Feb-12 08:00N 33°55' W 118°55'4 8.6
2018-Feb-12 07:30N 33°53' W 118°51'4 8.7
2018-Feb-12 07:00N 33°50' W 118°46'4 9.0
2018-Feb-12 06:30N 33°48' W 118°41'5 9.0
2018-Feb-12 06:00N 33°46' W 118°37'4 9.0
2018-Feb-12 05:30N 33°44' W 118°32'4 8.8
2018-Feb-12 05:00N 33°41' W 118°27'5 9.0
2018-Feb-12 04:30N 33°39' W 118°23'4 8.5
2018-Feb-12 04:00N 33°39' W 118°18'4 8.5
2018-Feb-12 03:30N 33°39' W 118°13'4 8.8
2018-Feb-12 03:00N 33°43' W 118°11'2 3.1
2018-Feb-12 02:30N 33°45' W 118°12'0 0.1
2018-Feb-12 01:55N 33°45' W 118°12'0 0.0
2018-Feb-12 01:28N 33°45' W 118°12'0 0.1
2018-Feb-12 00:55N 33°45' W 118°12'0 0.1
2018-Feb-12 00:28N 33°45' W 118°12'0 0.1
2018-Feb-11 23:58N 33°45' W 118°12'0 0.1
2018-Feb-11 23:28N 33°45' W 118°12'0 0.1
2018-Feb-11 22:52N 33°45' W 118°12'0 0.0
2018-Feb-11 22:28N 33°45' W 118°12'0 0.1
2018-Feb-11 21:58N 33°45' W 118°12'0 0.0
2018-Feb-11 21:25N 33°45' W 118°12'0 0.1
2018-Feb-11 20:55N 33°45' W 118°12'0 0.0
2018-Feb-11 20:28N 33°45' W 118°12'0 0.1
2018-Feb-11 19:58N 33°45' W 118°12'0 0.0
2018-Feb-11 19:28N 33°45' W 118°12'0 0.0
2018-Feb-11 18:58N 33°45' W 118°12'0 0.1
2018-Feb-11 18:28N 33°45' W 118°12'0 0.1
2018-Feb-11 17:58N 33°45' W 118°12'0 0.1
2018-Feb-11 17:28N 33°45' W 118°12'0 0.0
2018-Feb-11 16:58N 33°45' W 118°12'0 0.1
2018-Feb-11 16:28N 33°45' W 118°12'0 0.0
2018-Feb-11 15:58N 33°45' W 118°12'0 0.0
2018-Feb-11 15:28N 33°45' W 118°12'0 0.0
2018-Feb-11 14:58N 33°45' W 118°12'0 0.0
2018-Feb-11 14:28N 33°45' W 118°12'0 0.0
2018-Feb-11 13:58N 33°45' W 118°12'0 0.0
2018-Feb-11 13:28N 33°45' W 118°12'0 0.0
2018-Feb-11 12:58N 33°45' W 118°12'0 0.0
2018-Feb-11 12:25N 33°45' W 118°12'0 0.0
2018-Feb-11 11:55N 33°45' W 118°12'0 0.0
2018-Feb-11 11:25N 33°45' W 118°12'0 0.0
2018-Feb-11 10:58N 33°45' W 118°12'0 0.0
2018-Feb-11 10:28N 33°45' W 118°12'0 0.0
2018-Feb-11 06:46N 33°45' W 118°12'0 0.0
2018-Feb-11 06:10N 33°45' W 118°12'0 0.0
2018-Feb-11 05:52N 33°45' W 118°12'0 0.0
2018-Feb-11 05:28N 33°45' W 118°12'0 0.0
2018-Feb-11 02:16N 33°45' W 118°12'0 0.0
2018-Feb-11 01:58N 33°45' W 118°12'0 0.0
2018-Feb-11 01:28N 33°45' W 118°12'0 0.0
2018-Feb-11 00:58N 33°45' W 118°12'0 0.1
2018-Feb-11 00:28N 33°45' W 118°12'0 0.1
2018-Feb-10 23:55N 33°45' W 118°12'0 0.0
2018-Feb-10 23:28N 33°45' W 118°12'0 0.0
2018-Feb-10 22:58N 33°45' W 118°12'0 0.0
2018-Feb-10 22:28N 33°45' W 118°12'0 0.0
2018-Feb-10 21:58N 33°45' W 118°12'0 0.0
2018-Feb-10 21:28N 33°45' W 118°12'0 0.0
2018-Feb-10 20:58N 33°45' W 118°12'0 0.0
2018-Feb-10 20:28N 33°45' W 118°12'0 0.0
2018-Feb-10 19:58N 33°45' W 118°12'0 0.0
2018-Feb-10 19:28N 33°45' W 118°12'0 0.0
2018-Feb-10 18:58N 33°45' W 118°12'0 0.0
2018-Feb-10 18:28N 33°45' W 118°12'0 0.1
2018-Feb-10 17:58N 33°45' W 118°12'0 0.0
2018-Feb-10 17:28N 33°45' W 118°12'0 0.0
2018-Feb-10 16:58N 33°45' W 118°12'0 0.0
2018-Feb-10 16:28N 33°45' W 118°12'0 0.0
2018-Feb-10 15:58N 33°45' W 118°12'0 0.0
2018-Feb-10 15:28N 33°45' W 118°12'0 0.0
2018-Feb-10 14:58N 33°45' W 118°12'0 0.0
2018-Feb-10 10:31N 33°45' W 118°12'0 0.1
2018-Feb-10 10:07N 33°45' W 118°12'0 0.4
2018-Feb-10 09:58N 33°45' W 118°12'0 0.1
2018-Feb-10 09:25N 33°45' W 118°12'0 0.1
2018-Feb-10 08:43N 33°45' W 118°12'0 0.0
2018-Feb-10 08:19N 33°45' W 118°12'0 0.1
2018-Feb-10 07:55N 33°45' W 118°12'0 0.0
2018-Feb-10 07:13N 33°45' W 118°12'0 0.2
2018-Feb-10 06:55N 33°45' W 118°12'0 0.1
2018-Feb-10 06:25N 33°45' W 118°12'0 0.1
2018-Feb-10 05:49N 33°45' W 118°12'0 0.1
2018-Feb-10 05:25N 33°45' W 118°12'0 0.0
2018-Feb-10 04:37N 33°45' W 118°12'0 0.0
2018-Feb-10 04:19N 33°45' W 118°12'0 0.0
2018-Feb-10 03:43N 33°45' W 118°12'0 0.0
2018-Feb-10 03:25N 33°45' W 118°12'0 0.0
2018-Feb-10 02:49N 33°45' W 118°12'0 0.0
2018-Feb-10 02:25N 33°45' W 118°12'0 0.0
2018-Feb-10 01:55N 33°45' W 118°12'0 0.0
2018-Feb-10 01:28N 33°45' W 118°12'0 0.0
2018-Feb-10 00:58N 33°45' W 118°12'0 0.0
2018-Feb-10 00:28N 33°45' W 118°12'0 0.0
2018-Feb-09 23:58N 33°45' W 118°12'0 0.1
2018-Feb-09 23:28N 33°45' W 118°12'0 0.1
2018-Feb-09 22:58N 33°45' W 118°12'0 0.0
2018-Feb-09 22:46N 33°45' W 118°12'0 0.0
2018-Feb-09 13:00N 33°44' W 118°12'4 7.3
2018-Feb-09 12:30N 33°41' W 118°11'4 7.5
2018-Feb-09 12:00N 33°37' W 118°11'18 9.0
2018-Feb-09 10:01N 33°42' W 118°32'1510.2
2018-Feb-09 08:30N 33°49' W 118°48'2110.4
2018-Feb-09 06:30N 33°59' W 119°10'510.2
2018-Feb-09 06:00N 34°02' W 119°15'510.1
2018-Feb-09 05:30N 34°03' W 119°21'34212.2
2018-Feb-08 01:30N 34°45' W 126°12'1619.7
2018-Feb-08 00:41N 34°52' W 126°30'419.6
2018-Feb-08 00:29N 34°53' W 126°35'1019.8
2018-Feb-08 00:00N 34°57' W 126°45'1920.0
2018-Feb-07 23:03N 35°05' W 127°06'  
Track history (hours):
 
Tides and Currents Weather Stations Pressure Air Temp Water Temp Dewpoint Dewpoint Depression Visibility Wind Speed Wind Dir Waves Ship Positions

Bangkok Bridge

Last reported at 2018-Feb-15 06:46 UTC. Time now 2018-Feb-18 21:37 UTC.
Position N 38°10' W 124°08'.

Length 267 m; draft 11.7 m.

Type: Ship (hazmat cat A). MMSI: 353368000.

Date/timePositionNaut miles runAvg speedWind from/ knotsBaromVisibWave heightAir tempDewpointWater temp
2018-Feb-15 06:46N 38°10' W 124°08'716.7
2018-Feb-15 06:23N 38°10' W 123°59'616.7
2018-Feb-15 06:00N 38°10' W 123°51'816.8
2018-Feb-15 05:30N 38°10' W 123°41'816.8
2018-Feb-15 05:00N 38°10' W 123°30'714.7
2018-Feb-15 04:30N 38°09' W 123°20'5 9.5
2018-Feb-15 04:00N 38°06' W 123°17'5 9.3
2018-Feb-15 03:31N 38°02' W 123°13'5 9.3
2018-Feb-15 03:00N 37°59' W 123°09'5 9.1
2018-Feb-15 02:30N 37°57' W 123°04'4 9.1
2018-Feb-15 02:00N 37°54' W 122°59'5 9.2
2018-Feb-15 01:31N 37°52' W 122°54'5 9.1
2018-Feb-15 01:00N 37°50' W 122°49'5 9.2
2018-Feb-15 00:30N 37°47' W 122°44'510.8
2018-Feb-15 00:00N 37°46' W 122°37'816.9
2018-Feb-14 23:30N 37°50' W 122°28'611.9
2018-Feb-14 23:01N 37°48' W 122°21'1 1.6
2018-Feb-14 22:30N 37°49' W 122°20'0 0.0
2018-Feb-14 21:58N 37°49' W 122°20'0 0.0
2018-Feb-14 21:26N 37°49' W 122°20'0 0.0
2018-Feb-14 20:58N 37°49' W 122°20'0 0.0
2018-Feb-14 20:28N 37°49' W 122°20'0 0.0
2018-Feb-14 19:58N 37°49' W 122°20'0 0.0
2018-Feb-14 19:28N 37°49' W 122°20'0 0.0
2018-Feb-14 18:58N 37°49' W 122°20'0 0.0
2018-Feb-14 18:28N 37°49' W 122°20'0 0.0
2018-Feb-14 17:58N 37°49' W 122°20'0 0.0
2018-Feb-14 17:28N 37°49' W 122°20'0 0.0
2018-Feb-14 16:58N 37°49' W 122°20'0 0.0
2018-Feb-14 16:28N 37°49' W 122°20'0 0.0
2018-Feb-14 15:58N 37°49' W 122°20'0 0.0
2018-Feb-14 15:25N 37°49' W 122°20'0 0.0
2018-Feb-14 14:58N 37°49' W 122°20'0 0.0
2018-Feb-14 14:28N 37°49' W 122°20'0 0.0
2018-Feb-14 13:59N 37°49' W 122°20'0 0.0
2018-Feb-14 13:28N 37°49' W 122°20'0 0.0
2018-Feb-14 12:59N 37°49' W 122°20'0 0.0
2018-Feb-14 12:28N 37°49' W 122°20'0 0.0
2018-Feb-14 11:58N 37°49' W 122°20'0 0.0
2018-Feb-14 11:28N 37°49' W 122°20'0 0.0
2018-Feb-14 10:58N 37°49' W 122°20'0 0.0
2018-Feb-14 10:28N 37°49' W 122°20'0 0.0
2018-Feb-14 09:58N 37°49' W 122°20'0 0.0
2018-Feb-14 09:28N 37°49' W 122°20'0 0.0
2018-Feb-14 08:58N 37°49' W 122°20'0 0.0
2018-Feb-14 08:28N 37°49' W 122°20'0 0.0
2018-Feb-14 07:58N 37°49' W 122°20'0 0.0
2018-Feb-14 07:28N 37°49' W 122°20'0 0.0
2018-Feb-14 06:58N 37°49' W 122°20'0 0.0
2018-Feb-14 06:28N 37°49' W 122°20'0 0.0
2018-Feb-14 05:58N 37°49' W 122°20'0 0.0
2018-Feb-14 05:25N 37°49' W 122°20'0 0.0
2018-Feb-14 04:58N 37°49' W 122°20'0 0.0
2018-Feb-14 04:28N 37°49' W 122°20'0 0.0
2018-Feb-14 03:58N 37°49' W 122°20'0 0.0
2018-Feb-14 03:28N 37°49' W 122°20'0 0.0
2018-Feb-14 02:58N 37°49' W 122°20'0 0.0
2018-Feb-14 02:28N 37°49' W 122°20'0 0.0
2018-Feb-14 01:58N 37°49' W 122°20'0 0.0
2018-Feb-14 01:28N 37°49' W 122°20'0 0.0
2018-Feb-14 01:00N 37°49' W 122°20'1 1.7
2018-Feb-14 00:31N 37°48' W 122°21'611.1
2018-Feb-14 00:01N 37°49' W 122°28'713.3
2018-Feb-13 23:30N 37°47' W 122°35'510.8
2018-Feb-13 23:00N 37°44' W 122°41'510.8
2018-Feb-13 22:30N 37°38' W 122°40'4 8.0
2018-Feb-13 22:00N 37°34' W 122°40'4 7.2
2018-Feb-13 21:30N 37°31' W 122°40'4 7.3
2018-Feb-13 21:00N 37°27' W 122°40'4 7.7
2018-Feb-13 20:30N 37°23' W 122°40'4 7.9
2018-Feb-13 20:00N 37°19' W 122°40'4 7.6
2018-Feb-13 19:30N 37°15' W 122°40'4 7.5
2018-Feb-13 19:00N 37°12' W 122°40'4 7.9
2018-Feb-13 18:30N 37°08' W 122°40'4 7.8
2018-Feb-13 18:00N 37°04' W 122°38'4 7.9
2018-Feb-13 17:28N 37°00' W 122°36'105 8.1
2018-Feb-13 04:35N 35°26' W 121°39'1 8.0
2018-Feb-13 04:30N 35°25' W 121°39'4 8.0
2018-Feb-13 04:00N 35°22' W 121°36'4 8.3
2018-Feb-13 03:30N 35°19' W 121°33'4 8.2
2018-Feb-13 03:00N 35°15' W 121°31'4 8.6
2018-Feb-13 02:30N 35°12' W 121°28'4 8.5
2018-Feb-13 02:00N 35°08' W 121°25'4 8.6
2018-Feb-13 01:30N 35°04' W 121°22'4 8.4
2018-Feb-13 01:00N 35°01' W 121°19'4 7.7
2018-Feb-13 00:30N 34°58' W 121°17'4 8.1
2018-Feb-13 00:00N 34°54' W 121°14'4 8.2
2018-Feb-12 23:30N 34°51' W 121°11'4 8.2
2018-Feb-12 23:00N 34°47' W 121°08'4 8.3
2018-Feb-12 22:30N 34°44' W 121°06'4 8.4
2018-Feb-12 22:00N 34°41' W 121°03'4 8.5
2018-Feb-12 21:30N 34°37' W 121°00'4 8.6
2018-Feb-12 21:00N 34°33' W 120°57'4 8.5
2018-Feb-12 20:30N 34°30' W 120°54'4 8.2
2018-Feb-12 20:00N 34°26' W 120°51'4 8.5
2018-Feb-12 19:30N 34°25' W 120°47'4 8.1
2018-Feb-12 18:59N 34°24' W 120°42'4 8.3
2018-Feb-12 18:29N 34°23' W 120°37'4 8.1
2018-Feb-12 18:00N 34°22' W 120°32'4 8.3
2018-Feb-12 17:30N 34°21' W 120°27'4 8.3
2018-Feb-12 16:59N 34°20' W 120°22'4 8.1
2018-Feb-12 16:30N 34°19' W 120°18'5 8.5
2018-Feb-12 15:58N 34°17' W 120°12'4 8.9
2018-Feb-12 15:30N 34°16' W 120°08'4 8.8
2018-Feb-12 15:00N 34°15' W 120°02'5 8.5
2018-Feb-12 14:27N 34°14' W 119°57'5 8.6
2018-Feb-12 13:53N 34°13' W 119°51'3 8.4
2018-Feb-12 13:28N 34°12' W 119°47'4 8.8
2018-Feb-12 13:00N 34°11' W 119°42'4 8.2
2018-Feb-12 12:28N 34°09' W 119°37'5 8.5
2018-Feb-12 11:56N 34°08' W 119°32'4 8.7
2018-Feb-12 11:29N 34°07' W 119°27'5 8.8
2018-Feb-12 10:58N 34°06' W 119°22'5 9.0
2018-Feb-12 10:26N 34°05' W 119°17'4 8.0
2018-Feb-12 09:57N 34°03' W 119°12'4 8.1
2018-Feb-12 09:30N 34°01' W 119°09'5 8.4
2018-Feb-12 08:57N 33°59' W 119°04'4 8.9
2018-Feb-12 08:29N 33°57' W 118°59'4 8.7
2018-Feb-12 08:00N 33°55' W 118°55'4 8.6
2018-Feb-12 07:30N 33°53' W 118°51'4 8.7
2018-Feb-12 07:00N 33°50' W 118°46'4 9.0
2018-Feb-12 06:30N 33°48' W 118°41'5 9.0
2018-Feb-12 06:00N 33°46' W 118°37'4 9.0
2018-Feb-12 05:30N 33°44' W 118°32'4 8.8
2018-Feb-12 05:00N 33°41' W 118°27'5 9.0
2018-Feb-12 04:30N 33°39' W 118°23'4 8.5
2018-Feb-12 04:00N 33°39' W 118°18'4 8.5
2018-Feb-12 03:30N 33°39' W 118°13'4 8.8
2018-Feb-12 03:00N 33°43' W 118°11'2 3.1
2018-Feb-12 02:30N 33°45' W 118°12'0 0.1
2018-Feb-12 01:55N 33°45' W 118°12'0 0.0
2018-Feb-12 01:28N 33°45' W 118°12'0 0.1
2018-Feb-12 00:55N 33°45' W 118°12'0 0.1
2018-Feb-12 00:28N 33°45' W 118°12'0 0.1
2018-Feb-11 23:58N 33°45' W 118°12'0 0.1
2018-Feb-11 23:28N 33°45' W 118°12'0 0.1
2018-Feb-11 22:52N 33°45' W 118°12'0 0.0
2018-Feb-11 22:28N 33°45' W 118°12'0 0.1
2018-Feb-11 21:58N 33°45' W 118°12'0 0.0
2018-Feb-11 21:25N 33°45' W 118°12'0 0.1
2018-Feb-11 20:55N 33°45' W 118°12'0 0.0
2018-Feb-11 20:28N 33°45' W 118°12'0 0.1
2018-Feb-11 19:58N 33°45' W 118°12'0 0.0
2018-Feb-11 19:28N 33°45' W 118°12'0 0.0
2018-Feb-11 18:58N 33°45' W 118°12'0 0.1
2018-Feb-11 18:28N 33°45' W 118°12'0 0.1
2018-Feb-11 17:58N 33°45' W 118°12'0 0.1
2018-Feb-11 17:28N 33°45' W 118°12'0 0.0
2018-Feb-11 16:58N 33°45' W 118°12'0 0.1
2018-Feb-11 16:28N 33°45' W 118°12'0 0.0
2018-Feb-11 15:58N 33°45' W 118°12'0 0.0
2018-Feb-11 15:28N 33°45' W 118°12'0 0.0
2018-Feb-11 14:58N 33°45' W 118°12'0 0.0
2018-Feb-11 14:28N 33°45' W 118°12'0 0.0
2018-Feb-11 13:58N 33°45' W 118°12'0 0.0
2018-Feb-11 13:28N 33°45' W 118°12'0 0.0
2018-Feb-11 12:58N 33°45' W 118°12'0 0.0
2018-Feb-11 12:25N 33°45' W 118°12'0 0.0
2018-Feb-11 11:55N 33°45' W 118°12'0 0.0
2018-Feb-11 11:25N 33°45' W 118°12'0 0.0
2018-Feb-11 10:58N 33°45' W 118°12'0 0.0
2018-Feb-11 10:28N 33°45' W 118°12'0 0.0
2018-Feb-11 06:46N 33°45' W 118°12'0 0.0
2018-Feb-11 06:10N 33°45' W 118°12'0 0.0
2018-Feb-11 05:52N 33°45' W 118°12'0 0.0
2018-Feb-11 05:28N 33°45' W 118°12'0 0.0
2018-Feb-11 02:16N 33°45' W 118°12'0 0.0
2018-Feb-11 01:58N 33°45' W 118°12'0 0.0
2018-Feb-11 01:28N 33°45' W 118°12'0 0.0
2018-Feb-11 00:58N 33°45' W 118°12'0 0.1
2018-Feb-11 00:28N 33°45' W 118°12'0 0.1
2018-Feb-10 23:55N 33°45' W 118°12'0 0.0
2018-Feb-10 23:28N 33°45' W 118°12'0 0.0
2018-Feb-10 22:58N 33°45' W 118°12'0 0.0
2018-Feb-10 22:28N 33°45' W 118°12'0 0.0
2018-Feb-10 21:58N 33°45' W 118°12'0 0.0
2018-Feb-10 21:28N 33°45' W 118°12'0 0.0
2018-Feb-10 20:58N 33°45' W 118°12'0 0.0
2018-Feb-10 20:28N 33°45' W 118°12'0 0.0
2018-Feb-10 19:58N 33°45' W 118°12'0 0.0
2018-Feb-10 19:28N 33°45' W 118°12'0 0.0
2018-Feb-10 18:58N 33°45' W 118°12'0 0.0
2018-Feb-10 18:28N 33°45' W 118°12'0 0.1
2018-Feb-10 17:58N 33°45' W 118°12'0 0.0
2018-Feb-10 17:28N 33°45' W 118°12'0 0.0
2018-Feb-10 16:58N 33°45' W 118°12'0 0.0
2018-Feb-10 16:28N 33°45' W 118°12'0 0.0
2018-Feb-10 15:58N 33°45' W 118°12'0 0.0
2018-Feb-10 15:28N 33°45' W 118°12'0 0.0
2018-Feb-10 14:58N 33°45' W 118°12'0 0.0
2018-Feb-10 10:31N 33°45' W 118°12'0 0.1
2018-Feb-10 10:07N 33°45' W 118°12'0 0.4
2018-Feb-10 09:58N 33°45' W 118°12'0 0.1
2018-Feb-10 09:25N 33°45' W 118°12'0 0.1
2018-Feb-10 08:43N 33°45' W 118°12'0 0.0
2018-Feb-10 08:19N 33°45' W 118°12'0 0.1
2018-Feb-10 07:55N 33°45' W 118°12'0 0.0
2018-Feb-10 07:13N 33°45' W 118°12'0 0.2
2018-Feb-10 06:55N 33°45' W 118°12'0 0.1
2018-Feb-10 06:25N 33°45' W 118°12'0 0.1
2018-Feb-10 05:49N 33°45' W 118°12'0 0.1
2018-Feb-10 05:25N 33°45' W 118°12'0 0.0
2018-Feb-10 04:37N 33°45' W 118°12'0 0.0
2018-Feb-10 04:19N 33°45' W 118°12'0 0.0
2018-Feb-10 03:43N 33°45' W 118°12'0 0.0
2018-Feb-10 03:25N 33°45' W 118°12'0 0.0
2018-Feb-10 02:49N 33°45' W 118°12'0 0.0
2018-Feb-10 02:25N 33°45' W 118°12'0 0.0
2018-Feb-10 01:55N 33°45' W 118°12'0 0.0
2018-Feb-10 01:28N 33°45' W 118°12'0 0.0
2018-Feb-10 00:58N 33°45' W 118°12'0 0.0
2018-Feb-10 00:28N 33°45' W 118°12'0 0.0
2018-Feb-09 23:58N 33°45' W 118°12'0 0.1
2018-Feb-09 23:28N 33°45' W 118°12'0 0.1
2018-Feb-09 22:58N 33°45' W 118°12'0 0.0
2018-Feb-09 22:46N 33°45' W 118°12'0 0.0
2018-Feb-09 13:00N 33°44' W 118°12'4 7.3
2018-Feb-09 12:30N 33°41' W 118°11'4 7.5
2018-Feb-09 12:00N 33°37' W 118°11'18 9.0
2018-Feb-09 10:01N 33°42' W 118°32'1510.2
2018-Feb-09 08:30N 33°49' W 118°48'2110.4
2018-Feb-09 06:30N 33°59' W 119°10'510.2
2018-Feb-09 06:00N 34°02' W 119°15'510.1
2018-Feb-09 05:30N 34°03' W 119°21'34212.2
2018-Feb-08 01:30N 34°45' W 126°12'1619.7
2018-Feb-08 00:41N 34°52' W 126°30'419.6
2018-Feb-08 00:29N 34°53' W 126°35'1019.8
2018-Feb-08 00:00N 34°57' W 126°45'1920.0
2018-Feb-07 23:03N 35°05' W 127°06'  

Dump ship's entire track history